createdAt,value
2019-01-12T00:00:39.360Z,2.8
2019-01-12T00:01:41.787Z,2.8
2019-01-12T00:02:43.936Z,2.7
2019-01-12T00:03:46.089Z,2.7
2019-01-12T00:04:48.214Z,2.7
2019-01-12T00:05:50.339Z,2.8
2019-01-12T00:06:52.463Z,2.8
2019-01-12T00:07:54.608Z,2.8
2019-01-12T00:08:56.729Z,2.7
2019-01-12T00:09:58.867Z,2.8
2019-01-12T00:11:01.296Z,2.8
2019-01-12T00:12:03.430Z,2.8
2019-01-12T00:13:05.598Z,2.8
2019-01-12T00:14:08.019Z,2.8
2019-01-12T00:15:10.171Z,2.8
2019-01-12T00:16:12.600Z,2.8
2019-01-12T00:17:14.752Z,2.8
2019-01-12T00:18:16.885Z,2.8
2019-01-12T00:19:19.384Z,2.8
2019-01-12T00:20:21.495Z,2.8
2019-01-12T00:21:23.638Z,2.8
2019-01-12T00:22:25.803Z,2.8
2019-01-12T00:23:27.944Z,2.8
2019-01-12T00:24:33.192Z,2.8
2019-01-12T00:25:35.310Z,2.8
2019-01-12T00:26:37.431Z,2.8
2019-01-12T00:27:39.590Z,2.8
2019-01-12T00:28:42.003Z,2.8
2019-01-12T00:29:44.407Z,2.8
2019-01-12T00:30:46.546Z,2.8
2019-01-12T00:31:48.673Z,2.8
2019-01-12T00:32:50.808Z,2.8
2019-01-12T00:33:53.249Z,2.8
2019-01-12T00:34:56.756Z,2.8
2019-01-12T00:36:00.326Z,2.8
2019-01-12T00:37:02.760Z,2.7
2019-01-12T00:38:04.879Z,2.8
2019-01-12T00:39:07.020Z,2.7
2019-01-12T00:40:09.209Z,2.7
2019-01-12T00:41:11.356Z,2.8
2019-01-12T00:42:13.483Z,2.8
2019-01-12T00:43:15.914Z,2.8
2019-01-12T00:44:18.050Z,2.7
2019-01-12T00:45:20.486Z,2.8
2019-01-12T00:46:22.624Z,2.8
2019-01-12T00:47:24.804Z,2.8
2019-01-12T00:48:26.920Z,2.8
2019-01-12T00:49:29.063Z,2.8
2019-01-12T00:50:31.200Z,2.7
2019-01-12T00:51:33.348Z,2.7
2019-01-12T00:52:35.484Z,2.7
2019-01-12T00:53:37.625Z,2.7
2019-01-12T00:54:40.016Z,2.7
2019-01-12T00:55:42.458Z,2.8
2019-01-12T00:56:44.587Z,2.8
2019-01-12T00:57:46.715Z,2.8
2019-01-12T00:58:48.852Z,2.8
2019-01-12T00:59:51.251Z,2.7
2019-01-12T01:00:53.433Z,2.7
2019-01-12T01:01:55.829Z,2.7
2019-01-12T01:02:57.956Z,2.8
2019-01-12T01:04:00.087Z,2.7
2019-01-12T01:05:02.921Z,2.7
2019-01-12T01:06:05.052Z,2.7
2019-01-12T01:07:07.190Z,2.7
2019-01-12T01:08:09.317Z,2.6
2019-01-12T01:09:11.449Z,2.6
2019-01-12T01:10:13.584Z,2.6
2019-01-12T01:11:15.706Z,2.7
2019-01-12T01:12:17.815Z,2.6
2019-01-12T01:13:19.947Z,2.7
2019-01-12T01:14:22.073Z,2.7
2019-01-12T01:15:24.200Z,2.7
2019-01-12T01:16:26.334Z,2.7
2019-01-12T01:17:28.471Z,2.7
2019-01-12T01:18:30.978Z,2.6
2019-01-12T01:19:33.451Z,2.6
2019-01-12T01:20:35.580Z,2.7
2019-01-12T01:21:37.728Z,2.7
2019-01-12T01:22:39.861Z,2.7
2019-01-12T01:23:42.002Z,2.8
2019-01-12T01:24:47.381Z,2.8
2019-01-12T01:25:49.521Z,2.8
2019-01-12T01:26:51.635Z,2.9
2019-01-12T01:27:53.778Z,2.9
2019-01-12T01:28:55.924Z,2.9
2019-01-12T01:29:58.054Z,2.8
2019-01-12T01:31:00.483Z,2.9
2019-01-12T01:32:02.629Z,2.9
2019-01-12T01:33:04.752Z,2.9
2019-01-12T01:34:06.896Z,3
2019-01-12T01:35:09.315Z,3
2019-01-12T01:36:11.495Z,3
2019-01-12T01:37:13.897Z,3
2019-01-12T01:38:16.039Z,3
2019-01-12T01:39:18.183Z,2.9
2019-01-12T01:40:20.338Z,2.8
2019-01-12T01:41:22.501Z,2.9
2019-01-12T01:42:24.614Z,3
2019-01-12T01:43:26.743Z,3
2019-01-12T01:44:28.895Z,3.1
2019-01-12T01:45:31.023Z,3.1
2019-01-12T01:46:33.170Z,3.1
2019-01-12T01:47:35.371Z,3.1
2019-01-12T01:48:37.513Z,3.1
2019-01-12T01:49:39.645Z,3.1
2019-01-12T01:50:42.186Z,3.2
2019-01-12T01:51:44.338Z,3.2
2019-01-12T01:52:46.490Z,3.2
2019-01-12T01:53:50.410Z,3.3
2019-01-12T01:54:54.160Z,3.3
2019-01-12T01:55:56.581Z,3.3
2019-01-12T01:56:58.729Z,3.3
2019-01-12T01:58:00.872Z,3.3
2019-01-12T01:59:03.011Z,3.3
2019-01-12T02:00:05.140Z,3.3
2019-01-12T02:01:07.570Z,3.4
2019-01-12T02:02:09.682Z,3.5
2019-01-12T02:03:11.818Z,3.5
2019-01-12T02:04:13.963Z,3.5
2019-01-12T02:05:16.393Z,3.5
2019-01-12T02:06:18.521Z,3.6
2019-01-12T02:07:20.620Z,3.6
2019-01-12T02:08:23.032Z,3.6
2019-01-12T02:09:25.473Z,3.6
2019-01-12T02:10:27.625Z,3.6
2019-01-12T02:11:30.051Z,3.7
2019-01-12T02:12:32.189Z,3.7
2019-01-12T02:13:34.332Z,3.7
2019-01-12T02:14:36.868Z,3.7
2019-01-12T02:15:39.000Z,3.7
2019-01-12T02:16:41.126Z,3.7
2019-01-12T02:17:43.523Z,3.8
2019-01-12T02:18:45.676Z,3.8
2019-01-12T02:19:47.801Z,3.8
2019-01-12T02:20:49.948Z,3.8
2019-01-12T02:21:52.117Z,3.8
2019-01-12T02:22:54.228Z,3.8
2019-01-12T02:23:56.349Z,3.8
2019-01-12T02:25:01.360Z,3.8
2019-01-12T02:26:03.502Z,3.8
2019-01-12T02:27:05.640Z,3.8
2019-01-12T02:28:07.748Z,3.8
2019-01-12T02:29:09.885Z,3.8
2019-01-12T02:30:12.346Z,3.8
2019-01-12T02:31:14.501Z,3.8
2019-01-12T02:32:16.661Z,3.8
2019-01-12T02:33:18.808Z,3.9
2019-01-12T02:34:20.967Z,3.9
2019-01-12T02:35:23.113Z,3.9
2019-01-12T02:36:25.244Z,3.9
2019-01-12T02:37:27.459Z,3.9
2019-01-12T02:38:29.865Z,4
2019-01-12T02:39:32.263Z,4
2019-01-12T02:40:34.407Z,4
2019-01-12T02:41:36.528Z,4
2019-01-12T02:42:39.310Z,4
2019-01-12T02:43:41.736Z,4
2019-01-12T02:44:44.480Z,4
2019-01-12T02:45:46.913Z,4
2019-01-12T02:46:49.054Z,4
2019-01-12T02:47:51.210Z,4
2019-01-12T02:48:53.349Z,4
2019-01-12T02:49:55.472Z,4
2019-01-12T02:50:57.625Z,4
2019-01-12T02:51:59.764Z,4
2019-01-12T02:53:01.936Z,4
2019-01-12T02:54:04.070Z,4.1
2019-01-12T02:55:10.622Z,4.1
2019-01-12T02:56:13.357Z,4.1
2019-01-12T02:57:15.811Z,4.1
2019-01-12T02:58:19.985Z,4.2
2019-01-12T02:59:22.125Z,4.2
2019-01-12T03:00:24.278Z,4.2
2019-01-12T03:01:26.707Z,4.2
2019-01-12T03:02:28.853Z,4.2
2019-01-12T03:03:30.989Z,4.2
2019-01-12T03:04:33.111Z,4.3
2019-01-12T03:05:35.242Z,4.3
2019-01-12T03:06:37.646Z,4.3
2019-01-12T03:07:39.812Z,4.3
2019-01-12T03:08:41.942Z,4.3
2019-01-12T03:09:44.076Z,4.3
2019-01-12T03:10:46.225Z,4.3
2019-01-12T03:11:48.760Z,4.3
2019-01-12T03:12:50.878Z,4.3
2019-01-12T03:13:53.298Z,4.3
2019-01-12T03:14:55.458Z,4.3
2019-01-12T03:15:57.989Z,4.3
2019-01-12T03:17:00.411Z,4.3
2019-01-12T03:18:03.000Z,4.3
2019-01-12T03:19:05.452Z,4.3
2019-01-12T03:20:08.460Z,4.3
2019-01-12T03:21:11.011Z,4.3
2019-01-12T03:22:13.179Z,4.3
2019-01-12T03:23:15.301Z,4.3
2019-01-12T03:24:17.449Z,4.3
2019-01-12T03:25:20.764Z,4.3
2019-01-12T03:26:23.184Z,4.3
2019-01-12T03:27:25.373Z,4.3
2019-01-12T03:28:27.531Z,4.3
2019-01-12T03:29:30.045Z,4.3
2019-01-12T03:30:32.609Z,4.3
2019-01-12T03:31:34.792Z,4.3
2019-01-12T03:32:36.972Z,4.3
2019-01-12T03:33:39.104Z,4.3
2019-01-12T03:34:41.513Z,4.3
2019-01-12T03:35:43.651Z,4.3
2019-01-12T03:36:46.193Z,4.3
2019-01-12T03:37:48.671Z,4.4
2019-01-12T03:38:50.870Z,4.4
2019-01-12T03:39:53.417Z,4.4
2019-01-12T03:40:55.824Z,4.4
2019-01-12T03:41:58.237Z,4.4
2019-01-12T03:43:00.650Z,4.3
2019-01-12T03:44:03.230Z,4.3
2019-01-12T03:45:05.383Z,4.3
2019-01-12T03:46:07.533Z,4.4
2019-01-12T03:47:10.394Z,4.4
2019-01-12T03:48:12.813Z,4.3
2019-01-12T03:49:15.207Z,4.3
2019-01-12T03:50:17.702Z,4.4
2019-01-12T03:51:20.233Z,4.4
2019-01-12T03:52:22.379Z,4.4
2019-01-12T03:53:25.211Z,4.4
2019-01-12T03:54:27.633Z,4.4
2019-01-12T03:55:29.798Z,4.5
2019-01-12T03:56:31.937Z,4.5
2019-01-12T03:57:34.068Z,4.5
2019-01-12T03:58:36.223Z,4.4
2019-01-12T03:59:38.372Z,4.5
2019-01-12T04:00:40.532Z,4.5
2019-01-12T04:01:43.224Z,4.5
2019-01-12T04:02:45.366Z,4.5
2019-01-12T04:03:47.795Z,4.5
2019-01-12T04:04:50.327Z,4.5
2019-01-12T04:05:52.469Z,4.6
2019-01-12T04:06:54.616Z,4.6
2019-01-12T04:07:57.064Z,4.6
2019-01-12T04:08:59.221Z,4.6
2019-01-12T04:10:01.703Z,4.6
2019-01-12T04:11:04.153Z,4.6
2019-01-12T04:12:06.560Z,4.6
2019-01-12T04:13:08.706Z,4.6
2019-01-12T04:14:10.845Z,4.6
2019-01-12T04:15:12.976Z,4.6
2019-01-12T04:16:15.143Z,4.6
2019-01-12T04:17:17.279Z,4.6
2019-01-12T04:18:19.416Z,4.6
2019-01-12T04:19:21.545Z,4.6
2019-01-12T04:20:23.690Z,4.6
2019-01-12T04:21:26.185Z,4.6
2019-01-12T04:22:28.599Z,4.6
2019-01-12T04:23:30.753Z,4.6
2019-01-12T04:24:32.907Z,4.6
2019-01-12T04:25:35.703Z,4.6
2019-01-12T04:26:37.914Z,4.6
2019-01-12T04:27:40.052Z,4.6
2019-01-12T04:28:42.175Z,4.6
2019-01-12T04:29:44.303Z,4.7
2019-01-12T04:30:46.436Z,4.7
2019-01-12T04:31:48.576Z,4.7
2019-01-12T04:32:50.992Z,4.7
2019-01-12T04:33:53.161Z,4.7
2019-01-12T04:34:55.583Z,4.7
2019-01-12T04:35:57.723Z,4.7
2019-01-12T04:36:59.860Z,4.7
2019-01-12T04:38:01.987Z,4.7
2019-01-12T04:39:04.410Z,4.7
2019-01-12T04:40:06.531Z,4.8
2019-01-12T04:41:08.987Z,4.8
2019-01-12T04:42:11.408Z,4.8
2019-01-12T04:43:13.571Z,4.7
2019-01-12T04:44:15.706Z,4.7
2019-01-12T04:45:17.845Z,4.7
2019-01-12T04:46:19.996Z,4.8
2019-01-12T04:47:22.824Z,4.8
2019-01-12T04:48:24.978Z,4.8
2019-01-12T04:49:27.139Z,4.8
2019-01-12T04:50:29.316Z,4.8
2019-01-12T04:51:31.470Z,4.8
2019-01-12T04:52:34.012Z,4.8
2019-01-12T04:53:36.160Z,4.8
2019-01-12T04:54:38.600Z,4.9
2019-01-12T04:55:42.834Z,4.9
2019-01-12T04:56:44.977Z,4.9
2019-01-12T04:57:47.408Z,4.9
2019-01-12T04:58:49.566Z,4.8
2019-01-12T04:59:51.719Z,4.8
2019-01-12T05:00:54.459Z,4.8
2019-01-12T05:01:56.601Z,4.9
2019-01-12T05:02:58.735Z,4.9
2019-01-12T05:04:01.157Z,4.9
2019-01-12T05:05:03.983Z,4.9
2019-01-12T05:06:06.132Z,4.9
2019-01-12T05:07:08.280Z,4.9
2019-01-12T05:08:10.401Z,4.9
2019-01-12T05:09:12.553Z,4.9
2019-01-12T05:10:14.991Z,4.9
2019-01-12T05:11:17.134Z,4.9
2019-01-12T05:12:19.282Z,4.9
2019-01-12T05:13:21.412Z,4.9
2019-01-12T05:14:23.562Z,4.9
2019-01-12T05:15:26.111Z,4.9
2019-01-12T05:16:28.257Z,4.9
2019-01-12T05:17:30.451Z,4.9
2019-01-12T05:18:32.589Z,4.9
2019-01-12T05:19:35.106Z,4.9
2019-01-12T05:20:37.244Z,4.9
2019-01-12T05:21:39.382Z,4.9
2019-01-12T05:22:41.557Z,4.9
2019-01-12T05:23:43.699Z,4.9
2019-01-12T05:24:45.850Z,4.9
2019-01-12T05:25:50.462Z,4.9
2019-01-12T05:26:52.616Z,4.9
2019-01-12T05:27:54.773Z,4.9
2019-01-12T05:28:57.208Z,4.8
2019-01-12T05:29:59.341Z,4.8
2019-01-12T05:31:01.463Z,4.9
2019-01-12T05:32:03.632Z,4.8
2019-01-12T05:33:05.775Z,4.9
2019-01-12T05:34:07.914Z,4.9
2019-01-12T05:35:10.461Z,4.9
2019-01-12T05:36:13.403Z,4.8
2019-01-12T05:37:15.533Z,4.8
2019-01-12T05:38:17.656Z,4.9
2019-01-12T05:39:19.798Z,4.8
2019-01-12T05:40:21.930Z,4.9
2019-01-12T05:41:24.082Z,4.9
2019-01-12T05:42:26.514Z,4.9
2019-01-12T05:43:29.315Z,4.9
2019-01-12T05:44:31.443Z,4.9
2019-01-12T05:45:33.968Z,4.9
2019-01-12T05:46:36.381Z,4.9
2019-01-12T05:47:38.533Z,4.9
2019-01-12T05:48:40.955Z,4.9
2019-01-12T05:49:43.080Z,4.8
2019-01-12T05:50:45.229Z,4.8
2019-01-12T05:51:47.634Z,4.8
2019-01-12T05:52:50.040Z,4.8
2019-01-12T05:53:52.171Z,4.8
2019-01-12T05:54:54.323Z,4.9
2019-01-12T05:56:00.204Z,4.9
2019-01-12T05:57:03.325Z,4.9
2019-01-12T05:58:05.487Z,4.9
2019-01-12T05:59:08.286Z,4.9
2019-01-12T06:00:10.430Z,4.8
2019-01-12T06:01:12.564Z,4.8
2019-01-12T06:02:14.703Z,4.9
2019-01-12T06:03:16.848Z,4.9
2019-01-12T06:04:19.020Z,4.9
2019-01-12T06:05:21.162Z,4.9
2019-01-12T06:06:23.307Z,4.9
2019-01-12T06:07:25.509Z,4.9
2019-01-12T06:08:27.959Z,4.9
2019-01-12T06:09:30.394Z,5
2019-01-12T06:10:32.803Z,4.9
2019-01-12T06:11:34.941Z,4.9
2019-01-12T06:12:37.141Z,4.9
2019-01-12T06:13:39.267Z,5
2019-01-12T06:14:41.406Z,5
2019-01-12T06:15:43.807Z,5
2019-01-12T06:16:45.947Z,5
2019-01-12T06:17:48.366Z,5
2019-01-12T06:18:50.485Z,5
2019-01-12T06:19:52.619Z,5
2019-01-12T06:20:54.739Z,5
2019-01-12T06:21:56.861Z,5
2019-01-12T06:22:58.986Z,5.1
2019-01-12T06:24:01.162Z,5.1
2019-01-12T06:25:03.915Z,5.1
2019-01-12T06:26:06.070Z,5
2019-01-12T06:27:08.606Z,5.1
2019-01-12T06:28:10.732Z,5.1
2019-01-12T06:29:12.873Z,5.1
2019-01-12T06:30:14.994Z,5.1
2019-01-12T06:31:17.147Z,5
2019-01-12T06:32:19.288Z,5.1
2019-01-12T06:33:21.439Z,5.1
2019-01-12T06:34:23.572Z,5.1
2019-01-12T06:35:25.735Z,5.1
2019-01-12T06:36:28.592Z,5.1
2019-01-12T06:37:31.062Z,5.2
2019-01-12T06:38:33.472Z,5.1
2019-01-12T06:39:35.609Z,5.2
2019-01-12T06:40:37.774Z,5.2
2019-01-12T06:41:39.903Z,5.2
2019-01-12T06:42:42.430Z,5.2
2019-01-12T06:43:44.557Z,5.2
2019-01-12T06:44:47.245Z,5.1
2019-01-12T06:45:49.380Z,5.1
2019-01-12T06:46:51.497Z,5.1
2019-01-12T06:47:53.639Z,5.1
2019-01-12T06:48:55.759Z,5.1
2019-01-12T06:49:57.891Z,5.1
2019-01-12T06:51:00.025Z,5.1
2019-01-12T06:52:02.549Z,5.1
2019-01-12T06:53:04.686Z,5.1
2019-01-12T06:54:07.205Z,5.1
2019-01-12T06:55:09.927Z,5.1
2019-01-12T06:56:12.258Z,5.1
2019-01-12T06:57:14.383Z,5.1
2019-01-12T06:58:16.508Z,5.1
2019-01-12T06:59:18.644Z,5.1
2019-01-12T07:00:21.155Z,5.1
2019-01-12T07:01:23.295Z,5.1
2019-01-12T07:02:25.431Z,5.1
2019-01-12T07:03:27.577Z,5.1
2019-01-12T07:04:29.725Z,5.1
2019-01-12T07:05:32.155Z,5.1
2019-01-12T07:06:34.272Z,5.1
2019-01-12T07:07:36.386Z,5.1
2019-01-12T07:08:38.524Z,5.1
2019-01-12T07:09:40.642Z,5.1
2019-01-12T07:10:42.776Z,5.1
2019-01-12T07:11:44.906Z,5.1
2019-01-12T07:12:47.439Z,5.1
2019-01-12T07:13:49.583Z,5.1
2019-01-12T07:14:52.010Z,5.1
2019-01-12T07:15:54.447Z,5.1
2019-01-12T07:16:56.589Z,5.1
2019-01-12T07:17:58.751Z,5.1
2019-01-12T07:19:00.904Z,5.1
2019-01-12T07:20:03.310Z,5.1
2019-01-12T07:21:05.458Z,5.2
2019-01-12T07:22:07.579Z,5.2
2019-01-12T07:23:09.695Z,5.2
2019-01-12T07:24:12.123Z,5.2
2019-01-12T07:25:14.525Z,5.2
2019-01-12T07:26:18.820Z,5.2
2019-01-12T07:27:20.966Z,5.2
2019-01-12T07:28:23.374Z,5.2
2019-01-12T07:29:25.567Z,5.2
2019-01-12T07:30:27.713Z,5.2
2019-01-12T07:31:29.893Z,5.2
2019-01-12T07:32:32.043Z,5.2
2019-01-12T07:33:34.180Z,5.2
2019-01-12T07:34:36.309Z,5.2
2019-01-12T07:35:38.830Z,5.2
2019-01-12T07:36:40.948Z,5.2
2019-01-12T07:37:43.147Z,5.2
2019-01-12T07:38:45.665Z,5.3
2019-01-12T07:39:47.803Z,5.3
2019-01-12T07:40:50.215Z,5.3
2019-01-12T07:41:52.355Z,5.3
2019-01-12T07:42:54.509Z,5.3
2019-01-12T07:43:56.642Z,5.3
2019-01-12T07:44:58.800Z,5.3
2019-01-12T07:46:00.921Z,5.3
2019-01-12T07:47:03.337Z,5.3
2019-01-12T07:48:05.456Z,5.3
2019-01-12T07:49:07.587Z,5.3
2019-01-12T07:50:10.470Z,5.3
2019-01-12T07:51:12.998Z,5.3
2019-01-12T07:52:15.109Z,5.3
2019-01-12T07:53:17.259Z,5.3
2019-01-12T07:54:19.384Z,5.3
2019-01-12T07:55:21.529Z,5.3
2019-01-12T07:56:25.816Z,5.3
2019-01-12T07:57:27.943Z,5.3
2019-01-12T07:58:30.071Z,5.3
2019-01-12T07:59:32.208Z,5.3
2019-01-12T08:00:34.366Z,5.3
2019-01-12T08:01:36.582Z,5.3
2019-01-12T08:02:38.711Z,5.4
2019-01-12T08:03:40.854Z,5.4
2019-01-12T08:04:43.004Z,5.4
2019-01-12T08:05:45.118Z,5.4
2019-01-12T08:06:47.252Z,5.4
2019-01-12T08:07:49.371Z,5.4
2019-01-12T08:08:51.517Z,5.4
2019-01-12T08:09:53.670Z,5.4
2019-01-12T08:10:55.791Z,5.3
2019-01-12T08:11:58.310Z,5.4
2019-01-12T08:13:00.454Z,5.4
2019-01-12T08:14:02.598Z,5.4
2019-01-12T08:15:05.013Z,5.4
2019-01-12T08:16:07.139Z,5.4
2019-01-12T08:17:10.790Z,5.4
2019-01-12T08:18:12.917Z,5.4
2019-01-12T08:19:15.041Z,5.4
2019-01-12T08:20:17.259Z,5.4
2019-01-12T08:21:19.383Z,5.4
2019-01-12T08:22:21.505Z,5.4
2019-01-12T08:23:23.919Z,5.4
2019-01-12T08:24:26.072Z,5.4
2019-01-12T08:25:28.206Z,5.4
2019-01-12T08:26:32.439Z,5.4
2019-01-12T08:27:34.587Z,5.4
2019-01-12T08:28:36.739Z,5.4
2019-01-12T08:29:38.870Z,5.4
2019-01-12T08:30:41.314Z,5.5
2019-01-12T08:31:43.447Z,5.4
2019-01-12T08:32:45.573Z,5.5
2019-01-12T08:33:47.708Z,5.5
2019-01-12T08:34:50.383Z,5.4
2019-01-12T08:35:52.500Z,5.5
2019-01-12T08:36:54.637Z,5.5
2019-01-12T08:37:56.773Z,5.5
2019-01-12T08:38:58.923Z,5.5
2019-01-12T08:40:01.071Z,5.5
2019-01-12T08:41:03.227Z,5.5
2019-01-12T08:42:05.407Z,5.5
2019-01-12T08:43:07.524Z,5.5
2019-01-12T08:44:09.650Z,5.5
2019-01-12T08:45:11.786Z,5.5
2019-01-12T08:46:13.906Z,5.5
2019-01-12T08:47:16.033Z,5.5
2019-01-12T08:48:18.182Z,5.5
2019-01-12T08:49:20.311Z,5.5
2019-01-12T08:50:22.498Z,5.5
2019-01-12T08:51:24.643Z,5.5
2019-01-12T08:52:26.786Z,5.5
2019-01-12T08:53:29.242Z,5.6
2019-01-12T08:54:31.369Z,5.6
2019-01-12T08:55:33.522Z,5.6
2019-01-12T08:56:40.277Z,5.6
2019-01-12T08:57:42.691Z,5.6
2019-01-12T08:58:45.147Z,5.6
2019-01-12T08:59:47.545Z,5.6
2019-01-12T09:00:49.670Z,5.6
2019-01-12T09:01:52.105Z,5.6
2019-01-12T09:02:54.264Z,5.6
2019-01-12T09:03:56.383Z,5.6
2019-01-12T09:04:58.513Z,5.6
2019-01-12T09:06:00.657Z,5.6
2019-01-12T09:07:03.143Z,5.6
2019-01-12T09:08:05.247Z,5.6
2019-01-12T09:09:07.380Z,5.6
2019-01-12T09:10:09.514Z,5.7
2019-01-12T09:11:11.705Z,5.7
2019-01-12T09:12:13.862Z,5.7
2019-01-12T09:13:16.014Z,5.7
2019-01-12T09:14:18.178Z,5.6
2019-01-12T09:15:20.300Z,5.6
2019-01-12T09:16:22.439Z,5.6
2019-01-12T09:17:24.587Z,5.7
2019-01-12T09:18:26.709Z,5.7
2019-01-12T09:19:28.837Z,5.6
2019-01-12T09:20:30.999Z,5.7
2019-01-12T09:21:33.125Z,5.7
2019-01-12T09:22:35.535Z,5.7
2019-01-12T09:23:37.675Z,5.8
2019-01-12T09:24:39.799Z,5.8
2019-01-12T09:25:41.995Z,5.8
2019-01-12T09:26:46.793Z,5.8
2019-01-12T09:27:49.322Z,5.9
2019-01-12T09:28:51.477Z,6
2019-01-12T09:29:53.627Z,6
2019-01-12T09:30:56.055Z,6
2019-01-12T09:31:58.182Z,6.1
2019-01-12T09:33:00.320Z,6.1
2019-01-12T09:34:02.450Z,6
2019-01-12T09:35:04.586Z,6
2019-01-12T09:36:06.723Z,5.9
2019-01-12T09:37:08.885Z,6
2019-01-12T09:38:11.049Z,6
2019-01-12T09:39:13.180Z,6
2019-01-12T09:40:15.356Z,6
2019-01-12T09:41:17.501Z,6
2019-01-12T09:42:19.636Z,5.9
2019-01-12T09:43:21.778Z,5.9
2019-01-12T09:44:23.895Z,6
2019-01-12T09:45:26.034Z,5.9
2019-01-12T09:46:28.170Z,5.9
2019-01-12T09:48:34.723Z,5.9
2019-01-12T09:49:36.768Z,5.9
2019-01-12T09:50:38.815Z,5.9
2019-01-12T09:51:40.856Z,5.9
2019-01-12T09:52:42.904Z,5.9
2019-01-12T09:53:44.938Z,5.9
2019-01-12T09:54:46.963Z,5.9
2019-01-12T09:55:49.015Z,5.9
2019-01-12T09:56:53.046Z,5.9
2019-01-12T09:57:55.075Z,5.9
2019-01-12T09:58:57.407Z,5.9
2019-01-12T09:59:59.468Z,5.8
2019-01-12T10:01:01.513Z,5.9
2019-01-12T10:02:03.546Z,5.9
2019-01-12T10:03:05.595Z,5.9
2019-01-12T10:04:07.643Z,5.9
2019-01-12T10:05:10.633Z,5.9
2019-01-12T10:06:12.970Z,5.9
2019-01-12T10:07:15.032Z,5.9
2019-01-12T10:08:17.087Z,5.9
2019-01-12T10:09:19.131Z,5.9
2019-01-12T10:10:21.196Z,5.9
2019-01-12T10:11:23.250Z,5.9
2019-01-12T10:12:25.319Z,5.8
2019-01-12T10:13:27.364Z,5.8
2019-01-12T10:14:29.401Z,5.8
2019-01-12T10:15:31.493Z,5.8
2019-01-12T10:16:33.549Z,5.8
2019-01-12T10:17:35.604Z,5.8
2019-01-12T10:18:37.678Z,5.8
2019-01-12T10:19:40.008Z,5.8
2019-01-12T10:20:42.059Z,5.7
2019-01-12T10:21:44.082Z,5.8
2019-01-12T10:22:46.421Z,5.7
2019-01-12T10:23:48.451Z,5.7
2019-01-12T10:24:50.780Z,5.7
2019-01-12T10:25:52.828Z,5.7
2019-01-12T10:26:59.701Z,5.7
2019-01-12T10:28:01.747Z,5.7
2019-01-12T10:29:03.801Z,5.7
2019-01-12T10:30:06.908Z,5.7
2019-01-12T10:31:09.041Z,5.7
2019-01-12T10:32:11.155Z,5.7
2019-01-12T10:33:13.209Z,5.7
2019-01-12T10:34:15.309Z,5.6
2019-01-12T10:35:17.469Z,5.6
2019-01-12T10:36:19.706Z,5.6
2019-01-12T10:37:21.781Z,5.6
2019-01-12T10:38:23.849Z,5.7
2019-01-12T10:39:26.166Z,5.7
2019-01-12T10:40:28.221Z,5.7
2019-01-12T10:41:30.271Z,5.7
2019-01-12T10:42:32.322Z,5.7
2019-01-12T10:43:34.404Z,5.7
2019-01-12T10:44:36.456Z,5.7
2019-01-12T10:45:38.519Z,5.6
2019-01-12T10:46:40.565Z,5.7
2019-01-12T10:47:42.628Z,5.6
2019-01-12T10:48:44.669Z,5.7
2019-01-12T10:49:46.695Z,5.7
2019-01-12T10:50:48.745Z,5.6
2019-01-12T10:51:50.787Z,5.6
2019-01-12T10:52:52.849Z,5.6
2019-01-12T10:53:54.901Z,5.6
2019-01-12T10:54:56.928Z,5.6
2019-01-12T10:55:58.970Z,5.6
2019-01-12T10:57:07.339Z,5.6
2019-01-12T10:58:10.712Z,5.6
2019-01-12T10:59:12.734Z,5.6
2019-01-12T11:00:14.780Z,5.6
2019-01-12T11:01:16.829Z,5.6
2019-01-12T11:02:18.890Z,5.6
2019-01-12T11:03:20.921Z,5.6
2019-01-12T11:04:23.251Z,5.6
2019-01-12T11:05:25.300Z,5.6
2019-01-12T11:06:27.350Z,5.6
2019-01-12T11:07:29.396Z,5.5
2019-01-12T11:08:31.442Z,5.5
2019-01-12T11:09:33.497Z,5.6
2019-01-12T11:10:35.534Z,5.5
2019-01-12T11:11:37.862Z,5.5
2019-01-12T11:12:39.907Z,5.5
2019-01-12T11:13:41.946Z,5.5
2019-01-12T11:14:44.012Z,5.5
2019-01-12T11:15:46.065Z,5.5
2019-01-12T11:16:48.099Z,5.5
2019-01-12T11:17:50.138Z,5.5
2019-01-12T11:18:52.468Z,5.5
2019-01-12T11:19:55.064Z,5.4
2019-01-12T11:20:57.494Z,5.4
2019-01-12T11:21:59.544Z,5.4
2019-01-12T11:23:01.992Z,5.4
2019-01-12T11:24:04.039Z,5.4
2019-01-12T11:25:06.086Z,5.4
2019-01-12T11:26:08.134Z,5.4
2019-01-12T11:27:13.492Z,5.4
2019-01-12T11:28:15.535Z,5.4
2019-01-12T11:29:17.967Z,5.4
2019-01-12T11:30:20.007Z,5.4
2019-01-12T11:31:22.056Z,5.3
2019-01-12T11:32:24.094Z,5.3
2019-01-12T11:33:26.140Z,5.3
2019-01-12T11:34:28.190Z,5.3
2019-01-12T11:35:30.230Z,5.3
2019-01-12T11:36:32.286Z,5.3
2019-01-12T11:37:34.932Z,5.3
2019-01-12T11:38:36.971Z,5.3
2019-01-12T11:39:39.042Z,5.3
2019-01-12T11:40:41.131Z,5.3
2019-01-12T11:41:43.179Z,5.3
2019-01-12T11:42:45.486Z,5.3
2019-01-12T11:43:47.537Z,5.3
2019-01-12T11:44:49.901Z,5.3
2019-01-12T11:45:51.960Z,5.2
2019-01-12T11:46:54.041Z,5.2
2019-01-12T11:47:56.118Z,5.3
2019-01-12T11:48:58.152Z,5.3
2019-01-12T11:50:00.238Z,5.3
2019-01-12T11:51:02.305Z,5.3
2019-01-12T11:52:04.346Z,5.2
2019-01-12T11:53:06.403Z,5.2
2019-01-12T11:54:08.443Z,5.2
2019-01-12T11:55:10.488Z,5.2
2019-01-12T11:56:12.521Z,5.2
2019-01-12T11:57:20.580Z,5.2
2019-01-12T11:58:22.627Z,5.2
2019-01-12T11:59:24.663Z,5.2
2019-01-12T12:00:26.701Z,5.2
2019-01-12T12:01:29.053Z,5.2
2019-01-12T12:02:37.978Z,5.2
2019-01-12T12:03:40.034Z,5.1
2019-01-12T12:04:42.070Z,5.1
2019-01-12T12:05:44.152Z,5.1
2019-01-12T12:06:46.196Z,5.1
2019-01-12T12:07:48.241Z,5.1
2019-01-12T12:08:50.288Z,5.1
2019-01-12T12:09:52.327Z,5.1
2019-01-12T12:10:54.365Z,5.1
2019-01-12T12:11:56.707Z,5.1
2019-01-12T12:12:59.157Z,5.1
2019-01-12T12:14:01.585Z,5.1
2019-01-12T12:15:03.640Z,5
2019-01-12T12:16:05.680Z,5.1
2019-01-12T12:17:09.422Z,5.1
2019-01-12T12:18:11.456Z,5.1
2019-01-12T12:19:13.495Z,5.1
2019-01-12T12:20:15.560Z,5.1
2019-01-12T12:21:17.609Z,5.1
2019-01-12T12:22:19.671Z,5.1
2019-01-12T12:23:21.723Z,5.1
2019-01-12T12:24:24.091Z,5.1
2019-01-12T12:25:26.137Z,5.1
2019-01-12T12:26:28.178Z,5.1
2019-01-12T12:27:30.233Z,5.1
2019-01-12T12:28:32.311Z,5.1
2019-01-12T12:29:34.341Z,5.1
2019-01-12T12:30:36.378Z,5.2
2019-01-12T12:31:38.403Z,5.1
2019-01-12T12:32:40.729Z,5.1
2019-01-12T12:33:42.755Z,5.1
2019-01-12T12:34:45.083Z,5.1
2019-01-12T12:35:47.124Z,5.1
2019-01-12T12:36:50.887Z,5.1
2019-01-12T12:37:53.882Z,5.1
2019-01-12T12:38:56.304Z,5.1
2019-01-12T12:39:58.346Z,5.1
2019-01-12T12:41:00.676Z,5.1
2019-01-12T12:42:02.735Z,5.1
2019-01-12T12:43:04.815Z,5.1
2019-01-12T12:44:06.864Z,5.1
2019-01-12T12:45:08.910Z,5.1
2019-01-12T12:46:10.967Z,5.1
2019-01-12T12:47:13.025Z,5.1
2019-01-12T12:48:15.055Z,5.1
2019-01-12T12:49:17.142Z,5.1
2019-01-12T12:50:19.198Z,5.1
2019-01-12T12:51:21.270Z,5.1
2019-01-12T12:52:23.711Z,5.1
2019-01-12T12:53:26.105Z,5.1
2019-01-12T12:54:28.184Z,5.1
2019-01-12T12:55:30.279Z,5.1
2019-01-12T12:56:32.334Z,5.1
2019-01-12T12:57:34.420Z,5.1
2019-01-12T12:58:36.470Z,5.1
2019-01-12T12:59:38.523Z,5.2
2019-01-12T13:00:40.588Z,5.1
2019-01-12T13:01:44.139Z,5.2
2019-01-12T13:02:46.184Z,5.2
2019-01-12T13:03:48.229Z,5.2
2019-01-12T13:04:50.267Z,5.2
2019-01-12T13:05:52.301Z,5.2
2019-01-12T13:06:54.343Z,5.2
2019-01-12T13:07:56.398Z,5.2
2019-01-12T13:08:58.452Z,5.2
2019-01-12T13:10:00.651Z,5.2
2019-01-12T13:11:02.696Z,5.2
2019-01-12T13:12:04.783Z,5.2
2019-01-12T13:13:06.850Z,5.2
2019-01-12T13:14:08.894Z,5.3
2019-01-12T13:15:11.829Z,5.3
2019-01-12T13:16:13.869Z,5.3
2019-01-12T13:17:15.943Z,5.3
2019-01-12T13:18:18.003Z,5.3
2019-01-12T13:19:20.053Z,5.3
2019-01-12T13:20:22.130Z,5.3
2019-01-12T13:21:24.439Z,5.3
2019-01-12T13:22:26.492Z,5.3
2019-01-12T13:23:28.580Z,5.3
2019-01-12T13:24:30.629Z,5.3
2019-01-12T13:25:32.664Z,5.3
2019-01-12T13:26:34.692Z,5.3
2019-01-12T13:27:41.030Z,5.3
2019-01-12T13:28:43.081Z,5.3
2019-01-12T13:29:45.124Z,5.3
2019-01-12T13:30:47.179Z,5.3
2019-01-12T13:31:49.217Z,5.4
2019-01-12T13:32:51.263Z,5.3
2019-01-12T13:33:53.308Z,5.4
2019-01-12T13:34:55.343Z,5.4
2019-01-12T13:35:57.391Z,5.4
2019-01-12T13:36:59.825Z,5.4
2019-01-12T13:38:02.183Z,5.4
2019-01-12T13:39:04.504Z,5.4
2019-01-12T13:40:06.539Z,5.4
2019-01-12T13:41:08.597Z,5.4
2019-01-12T13:42:10.653Z,5.4
2019-01-12T13:43:12.701Z,5.4
2019-01-12T13:44:14.744Z,5.4
2019-01-12T13:45:16.777Z,5.5
2019-01-12T13:46:19.189Z,5.5
2019-01-12T13:47:22.102Z,5.5
2019-01-12T13:48:24.133Z,5.5
2019-01-12T13:49:26.163Z,5.5
2019-01-12T13:50:28.613Z,5.5
2019-01-12T13:51:30.651Z,5.5
2019-01-12T13:52:32.964Z,5.5
2019-01-12T13:53:35.025Z,5.5
2019-01-12T13:54:37.117Z,5.5
2019-01-12T13:55:39.202Z,5.5
2019-01-12T13:56:41.243Z,5.6
2019-01-12T13:57:49.379Z,5.6
2019-01-12T13:58:51.462Z,5.6
2019-01-12T13:59:53.581Z,5.6
2019-01-12T14:00:55.918Z,5.6
2019-01-12T14:01:58.072Z,5.6
2019-01-12T14:03:01.929Z,5.6
2019-01-12T14:04:04.044Z,5.6
2019-01-12T14:05:06.092Z,5.6
2019-01-12T14:06:08.136Z,5.6
2019-01-12T14:07:10.186Z,5.6
2019-01-12T14:08:12.228Z,5.6
2019-01-12T14:09:14.255Z,5.6
2019-01-12T14:10:16.299Z,5.6
2019-01-12T14:11:18.339Z,5.6
2019-01-12T14:12:20.388Z,5.6
2019-01-12T14:13:22.432Z,5.6
2019-01-12T14:14:24.475Z,5.6
2019-01-12T14:15:26.522Z,5.7
2019-01-12T14:16:28.571Z,5.6
2019-01-12T14:17:30.628Z,5.7
2019-01-12T14:18:32.681Z,5.7
2019-01-12T14:19:34.730Z,5.7
2019-01-12T14:20:36.781Z,5.7
2019-01-12T14:21:38.815Z,5.7
2019-01-12T14:22:40.864Z,5.7